Time,TemperatureF,DewpointF,PressureIn,WindDirection,WindDirectionDegrees,WindSpeedMPH,WindSpeedGustMPH,Humidity,HourlyPrecipIn,Conditions,Clouds,dailyrainin,SoftwareType,DateUTC
2013-02-05 00:00:00,32.9,30.3,29.97,NE,52,0.0,0.0,90,0.00,,,0.00,Wunderground v.1.12,2013-02-05 07:00:00,
2013-02-05 00:05:00,33.2,30.6,29.97,NE,52,0.0,0.0,90,0.00,,,0.00,Wunderground v.1.12,2013-02-05 07:05:00,
2013-02-05 00:15:00,32.6,30.0,29.98,NE,53,0.0,0.0,90,0.00,,,0.00,Wunderground v.1.12,2013-02-05 07:15:00,
2013-02-05 00:20:00,33.0,30.4,29.97,NE,52,0.0,0.0,90,0.00,,,0.00,Wunderground v.1.12,2013-02-05 07:20:00,
2013-02-05 00:30:00,32.4,30.1,29.97,ENE,62,0.0,0.0,91,0.00,,,0.00,Wunderground v.1.12,2013-02-05 07:30:00,
2013-02-05 00:35:00,32.5,29.9,29.97,NE,53,0.0,0.0,90,0.00,,,0.00,Wunderground v.1.12,2013-02-05 07:35:00,
2013-02-05 00:40:00,32.6,30.3,29.97,NE,50,0.0,0.0,91,0.00,,,0.00,Wunderground v.1.12,2013-02-05 07:40:00,
2013-02-05 00:45:00,32.0,29.7,29.97,ENE,59,0.0,0.0,91,0.00,,,0.00,Wunderground v.1.12,2013-02-05 07:45:00,
2013-02-05 00:50:00,32.0,29.7,29.97,NE,47,0.0,0.0,91,0.00,,,0.00,Wunderground v.1.12,2013-02-05 07:50:00,
2013-02-05 00:55:00,32.1,29.8,29.98,NE,47,0.0,0.0,91,0.00,,,0.00,Wunderground v.1.12,2013-02-05 07:55:00,
2013-02-05 01:00:00,32.0,29.7,29.97,NE,46,0.0,0.0,91,0.00,,,0.00,Wunderground v.1.12,2013-02-05 08:00:00,
2013-02-05 01:05:00,31.9,29.6,29.97,NE,46,0.0,0.0,91,0.00,,,0.00,Wunderground v.1.12,2013-02-05 08:05:00,
2013-02-05 01:15:00,32.1,29.8,29.97,NE,49,0.0,0.0,91,0.00,,,0.00,Wunderground v.1.12,2013-02-05 08:15:00,
2013-02-05 01:20:00,32.0,29.7,29.96,NE,49,0.0,0.0,91,0.00,,,0.00,Wunderground v.1.12,2013-02-05 08:20:00,
2013-02-05 01:25:00,31.7,29.4,29.96,NE,49,0.0,0.0,91,0.00,,,0.00,Wunderground v.1.12,2013-02-05 08:25:00,
2013-02-05 01:30:00,31.9,29.3,29.96,NE,49,0.0,0.0,90,0.00,,,0.00,Wunderground v.1.12,2013-02-05 08:30:00,
2013-02-05 01:35:00,32.0,29.7,29.96,NE,49,0.0,0.0,91,0.00,,,0.00,Wunderground v.1.12,2013-02-05 08:35:00,
2013-02-05 01:40:00,31.6,29.3,29.96,NE,49,0.0,0.0,91,0.00,,,0.00,Wunderground v.1.12,2013-02-05 08:40:00,
2013-02-05 01:50:00,31.7,29.4,29.96,NE,53,0.0,0.0,91,0.00,,,0.00,Wunderground v.1.12,2013-02-05 08:50:00,
2013-02-05 01:55:00,31.7,29.4,29.96,NE,53,0.0,0.0,91,0.00,,,0.00,Wunderground v.1.12,2013-02-05 08:55:00,
2013-02-05 02:00:00,31.2,28.9,29.96,NE,41,0.0,0.0,91,0.00,,,0.00,Wunderground v.1.12,2013-02-05 09:00:00,
2013-02-05 02:10:00,31.2,29.1,29.96,NE,41,0.0,0.0,92,0.00,,,0.00,Wunderground v.1.12,2013-02-05 09:10:00,
2013-02-05 02:15:00,31.4,29.1,29.96,NE,41,0.0,0.0,91,0.00,,,0.00,Wunderground v.1.12,2013-02-05 09:15:00,
2013-02-05 02:20:00,31.5,29.2,29.96,NE,41,0.0,0.0,91,0.00,,,0.00,Wunderground v.1.12,2013-02-05 09:20:00,
2013-02-05 02:25:00,31.4,29.3,29.96,NE,41,0.0,0.0,92,0.00,,,0.00,Wunderground v.1.12,2013-02-05 09:25:00,
2013-02-05 02:30:00,31.6,29.3,29.96,NE,45,0.0,0.0,91,0.00,,,0.00,Wunderground v.1.12,2013-02-05 09:30:00,
2013-02-05 02:35:00,31.6,29.3,29.95,NE,50,0.0,0.0,91,0.00,,,0.00,Wunderground v.1.12,2013-02-05 09:35:00,
2013-02-05 02:40:00,31.5,29.4,29.95,NE,50,0.0,0.0,92,0.00,,,0.00,Wunderground v.1.12,2013-02-05 09:40:00,
2013-02-05 02:50:00,31.5,29.4,29.95,NE,50,0.0,0.0,92,0.00,,,0.00,Wunderground v.1.12,2013-02-05 09:50:00,
2013-02-05 02:55:00,31.4,29.3,29.96,NE,50,0.0,0.0,92,0.00,,,0.00,Wunderground v.1.12,2013-02-05 09:55:00,
2013-02-05 03:00:00,31.4,29.3,29.95,NE,50,0.0,0.0,92,0.00,,,0.00,Wunderground v.1.12,2013-02-05 10:00:00,
2013-02-05 03:05:00,31.0,28.9,29.95,NE,50,0.0,0.0,92,0.00,,,0.00,Wunderground v.1.12,2013-02-05 10:05:00,
2013-02-05 03:10:00,31.4,29.3,29.95,NE,50,0.0,0.0,92,0.00,,,0.00,Wunderground v.1.12,2013-02-05 10:10:00,
2013-02-05 03:15:00,31.5,29.4,29.95,NE,50,0.0,0.0,92,0.00,,,0.00,Wunderground v.1.12,2013-02-05 10:15:00,
2013-02-05 03:20:00,31.0,28.9,29.95,NE,50,0.0,0.0,92,0.00,,,0.00,Wunderground v.1.12,2013-02-05 10:20:00,
2013-02-05 03:25:00,31.8,29.7,29.95,NE,50,0.0,0.0,92,0.00,,,0.00,Wunderground v.1.12,2013-02-05 10:25:00,
2013-02-05 03:30:00,31.6,29.5,29.95,NE,50,0.0,0.0,92,0.00,,,0.00,Wunderground v.1.12,2013-02-05 10:30:00,
2013-02-05 03:35:00,31.3,29.2,29.94,NE,50,0.0,0.0,92,0.00,,,0.00,Wunderground v.1.12,2013-02-05 10:35:00,
2013-02-05 03:40:00,31.2,29.1,29.94,NE,48,0.0,0.0,92,0.00,,,0.00,Wunderground v.1.12,2013-02-05 10:40:00,
2013-02-05 03:45:00,31.4,29.3,29.93,NE,48,0.0,0.0,92,0.00,,,0.00,Wunderground v.1.12,2013-02-05 10:45:00,
2013-02-05 03:55:00,31.1,29.0,29.93,NE,50,0.0,0.0,92,0.00,,,0.00,Wunderground v.1.12,2013-02-05 10:55:00,
2013-02-05 04:00:00,31.4,29.3,29.93,NE,50,0.0,0.0,92,0.00,,,0.00,Wunderground v.1.12,2013-02-05 11:00:00,
2013-02-05 04:05:00,31.2,29.1,29.93,NE,50,0.0,0.0,92,0.00,,,0.00,Wunderground v.1.12,2013-02-05 11:05:00,
2013-02-05 04:10:00,31.0,28.9,29.93,ENE,58,0.0,0.0,92,0.00,,,0.00,Wunderground v.1.12,2013-02-05 11:10:00,
2013-02-05 04:15:00,31.7,29.6,29.94,NE,53,0.0,0.0,92,0.00,,,0.00,Wunderground v.1.12,2013-02-05 11:15:00,
2013-02-05 04:25:00,31.0,28.9,29.93,NE,53,0.0,0.0,92,0.00,,,0.00,Wunderground v.1.12,2013-02-05 11:25:00,
2013-02-05 04:30:00,31.0,28.9,29.93,NE,53,0.0,0.0,92,0.00,,,0.00,Wunderground v.1.12,2013-02-05 11:30:00,
2013-02-05 04:35:00,30.9,28.9,29.93,NE,53,0.0,0.0,92,0.00,,,0.00,Wunderground v.1.12,2013-02-05 11:35:00,
2013-02-05 04:40:00,30.5,28.5,29.93,NE,53,0.0,0.0,92,0.00,,,0.00,Wunderground v.1.12,2013-02-05 11:40:00,
2013-02-05 04:45:00,31.3,29.5,29.93,NE,53,0.0,0.0,93,0.00,,,0.00,Wunderground v.1.12,2013-02-05 11:45:00,
2013-02-05 04:55:00,31.3,29.2,29.93,NE,53,0.0,0.0,92,0.00,,,0.00,Wunderground v.1.12,2013-02-05 11:55:00,
2013-02-05 05:00:00,30.8,29.0,29.93,NE,53,0.0,0.0,93,0.00,,,0.00,Wunderground v.1.12,2013-02-05 12:00:00,
2013-02-05 05:05:00,30.7,28.9,29.93,NE,53,0.0,0.0,93,0.00,,,0.00,Wunderground v.1.12,2013-02-05 12:05:00,
2013-02-05 05:10:00,30.9,28.9,29.93,NE,53,0.0,0.0,92,0.00,,,0.00,Wunderground v.1.12,2013-02-05 12:10:00,
2013-02-05 05:15:00,30.8,28.8,29.93,NE,53,0.0,0.0,92,0.00,,,0.00,Wunderground v.1.12,2013-02-05 12:15:00,
2013-02-05 05:20:00,30.8,28.8,29.93,NE,53,0.0,0.0,92,0.00,,,0.00,Wunderground v.1.12,2013-02-05 12:20:00,
2013-02-05 05:30:00,31.1,29.0,29.92,NE,53,0.0,0.0,92,0.00,,,0.00,Wunderground v.1.12,2013-02-05 12:30:00,
2013-02-05 05:35:00,31.3,29.5,29.92,NE,53,0.0,0.0,93,0.00,,,0.00,Wunderground v.1.12,2013-02-05 12:35:00,
2013-02-05 05:40:00,30.8,29.0,29.92,NE,53,0.0,0.0,93,0.00,,,0.00,Wunderground v.1.12,2013-02-05 12:40:00,
2013-02-05 05:45:00,31.0,29.2,29.92,NE,53,0.0,0.0,93,0.00,,,0.00,Wunderground v.1.12,2013-02-05 12:45:00,
2013-02-05 05:55:00,30.8,29.0,29.91,NE,53,0.0,0.0,93,0.00,,,0.00,Wunderground v.1.12,2013-02-05 12:55:00,
2013-02-05 06:00:00,30.5,28.5,29.91,NE,53,0.0,0.0,92,0.00,,,0.00,Wunderground v.1.12,2013-02-05 13:00:00,
2013-02-05 06:05:00,30.9,29.1,29.91,NE,53,0.0,0.0,93,0.00,,,0.00,Wunderground v.1.12,2013-02-05 13:05:00,
2013-02-05 06:15:00,30.9,29.1,29.92,NE,53,0.0,0.0,93,0.00,,,0.00,Wunderground v.1.12,2013-02-05 13:15:00,
2013-02-05 06:20:00,30.9,29.1,29.91,NE,53,0.0,0.0,93,0.00,,,0.00,Wunderground v.1.12,2013-02-05 13:20:00,
2013-02-05 06:30:00,31.0,29.5,29.91,NE,53,0.0,0.0,94,0.00,,,0.00,Wunderground v.1.12,2013-02-05 13:30:00,
2013-02-05 06:35:00,30.8,29.0,29.91,NE,53,0.0,0.0,93,0.00,,,0.00,Wunderground v.1.12,2013-02-05 13:35:00,
2013-02-05 06:40:00,30.8,29.0,29.91,NE,53,0.0,0.0,93,0.00,,,0.00,Wunderground v.1.12,2013-02-05 13:40:00,
2013-02-05 06:45:00,30.6,28.8,29.91,NE,53,0.0,0.0,93,0.00,,,0.00,Wunderground v.1.12,2013-02-05 13:45:00,
2013-02-05 06:55:00,30.9,29.1,29.91,NE,53,0.0,0.0,93,0.00,,,0.00,Wunderground v.1.12,2013-02-05 13:55:00,
2013-02-05 07:05:00,30.8,29.3,29.90,NE,53,0.0,0.0,94,0.00,,,0.00,Wunderground v.1.12,2013-02-05 14:05:00,
2013-02-05 07:15:00,31.1,29.6,29.90,NE,53,0.0,0.0,94,0.00,,,0.00,Wunderground v.1.12,2013-02-05 14:15:00,
2013-02-05 07:20:00,31.0,29.2,29.90,NE,53,0.0,0.0,93,0.00,,,0.00,Wunderground v.1.12,2013-02-05 14:20:00,
2013-02-05 07:25:00,31.3,29.5,29.90,NE,53,0.0,0.0,93,0.00,,,0.00,Wunderground v.1.12,2013-02-05 14:25:00,
2013-02-05 07:35:00,31.3,29.8,29.89,NE,53,0.0,0.0,94,0.00,,,0.00,Wunderground v.1.12,2013-02-05 14:35:00,
2013-02-05 07:45:00,30.6,29.1,29.88,NE,53,0.0,0.0,94,0.00,,,0.00,Wunderground v.1.12,2013-02-05 14:45:00,
2013-02-05 07:50:00,30.8,29.3,29.89,NE,53,0.0,0.0,94,0.00,,,0.00,Wunderground v.1.12,2013-02-05 14:50:00,
2013-02-05 07:55:00,30.8,29.3,29.89,NE,53,0.0,0.0,94,0.00,,,0.00,Wunderground v.1.12,2013-02-05 14:55:00,
2013-02-05 08:05:00,30.8,29.3,29.89,NE,53,0.0,0.0,94,0.00,,,0.00,Wunderground v.1.12,2013-02-05 15:05:00,
2013-02-05 08:10:00,31.1,29.6,29.88,NE,53,0.0,0.0,94,0.00,,,0.00,Wunderground v.1.12,2013-02-05 15:10:00,
2013-02-05 08:15:00,31.1,29.6,29.88,NE,53,0.0,0.0,94,0.00,,,0.00,Wunderground v.1.12,2013-02-05 15:15:00,
2013-02-05 08:25:00,31.3,29.8,29.88,NE,53,0.0,0.0,94,0.00,,,0.00,Wunderground v.1.12,2013-02-05 15:25:00,
2013-02-05 08:35:00,31.1,29.6,29.88,NE,53,0.0,0.0,94,0.00,,,0.00,Wunderground v.1.12,2013-02-05 15:35:00,
2013-02-05 08:40:00,31.3,29.8,29.88,NE,53,0.0,0.0,94,0.00,,,0.00,Wunderground v.1.12,2013-02-05 15:40:00,
2013-02-05 08:45:00,31.6,30.1,29.88,NE,53,0.0,0.0,94,0.00,,,0.00,Wunderground v.1.12,2013-02-05 15:45:00,
2013-02-05 08:50:00,31.5,30.0,29.88,NE,53,0.0,0.0,94,0.00,,,0.00,Wunderground v.1.12,2013-02-05 15:50:00,
2013-02-05 09:00:00,31.4,29.9,29.88,NE,53,0.0,0.0,94,0.00,,,0.00,Wunderground v.1.12,2013-02-05 16:00:00,
2013-02-05 09:10:00,31.5,30.0,29.88,NE,53,0.0,0.0,94,0.00,,,0.00,Wunderground v.1.12,2013-02-05 16:10:00,
2013-02-05 09:15:00,31.7,30.2,29.88,NE,54,0.0,0.0,94,0.00,,,0.00,Wunderground v.1.12,2013-02-05 16:15:00,
2013-02-05 09:20:00,31.6,30.1,29.88,NE,54,0.0,0.0,94,0.00,,,0.00,Wunderground v.1.12,2013-02-05 16:20:00,
2013-02-05 09:25:00,32.1,30.6,29.88,NE,54,0.0,0.0,94,0.00,,,0.00,Wunderground v.1.12,2013-02-05 16:25:00,
2013-02-05 09:30:00,32.2,30.7,29.88,NE,54,0.0,0.0,94,0.00,,,0.00,Wunderground v.1.12,2013-02-05 16:30:00,
2013-02-05 09:35:00,32.2,30.4,29.88,NE,54,0.0,0.0,93,0.00,,,0.00,Wunderground v.1.12,2013-02-05 16:35:00,
2013-02-05 09:45:00,32.3,30.8,29.88,NE,54,0.0,0.0,94,0.00,,,0.00,Wunderground v.1.12,2013-02-05 16:45:00,
2013-02-05 09:55:00,32.5,31.0,29.88,NE,54,0.0,0.0,94,0.00,,,0.00,Wunderground v.1.12,2013-02-05 16:55:00,
2013-02-05 10:00:00,32.7,31.2,29.88,NE,54,0.0,0.0,94,0.00,,,0.00,Wunderground v.1.12,2013-02-05 17:00:00,
2013-02-05 10:05:00,33.0,31.2,29.88,NE,54,0.0,0.0,93,0.00,,,0.00,Wunderground v.1.12,2013-02-05 17:05:00,
2013-02-05 10:10:00,33.3,31.8,29.88,NE,54,0.0,0.0,94,0.00,,,0.00,Wunderground v.1.12,2013-02-05 17:10:00,
2013-02-05 10:15:00,33.3,31.8,29.88,NE,54,0.0,0.0,94,0.00,,,0.00,Wunderground v.1.12,2013-02-05 17:15:00,
2013-02-05 10:25:00,33.7,32.2,29.87,NE,54,0.0,0.0,94,0.00,,,0.00,Wunderground v.1.12,2013-02-05 17:25:00,
2013-02-05 10:30:00,33.9,32.1,29.87,NE,54,0.0,0.0,93,0.00,,,0.00,Wunderground v.1.12,2013-02-05 17:30:00,
2013-02-05 10:35:00,33.9,31.8,29.87,NE,54,0.0,0.0,92,0.00,,,0.00,Wunderground v.1.12,2013-02-05 17:35:00,
2013-02-05 10:45:00,34.0,31.6,29.87,SSE,153,0.0,0.0,91,0.00,,,0.00,Wunderground v.1.12,2013-02-05 17:45:00,
2013-02-05 10:55:00,34.4,32.0,29.87,SSE,153,0.0,0.0,91,0.00,,,0.00,Wunderground v.1.12,2013-02-05 17:55:00,
2013-02-05 11:00:00,34.5,32.4,29.86,SSE,153,0.0,0.0,92,0.00,,,0.00,Wunderground v.1.12,2013-02-05 18:00:00,
2013-02-05 11:05:00,34.7,32.3,29.86,SSE,153,0.0,0.0,91,0.00,,,0.00,Wunderground v.1.12,2013-02-05 18:05:00,
2013-02-05 11:10:00,35.1,32.7,29.86,SSE,153,0.0,0.0,91,0.00,,,0.00,Wunderground v.1.12,2013-02-05 18:10:00,
2013-02-05 11:20:00,35.6,33.2,29.86,SSE,153,0.0,0.0,91,0.00,,,0.00,Wunderground v.1.12,2013-02-05 18:20:00,
2013-02-05 11:25:00,35.9,33.5,29.86,SSE,153,0.0,0.0,91,0.00,,,0.00,Wunderground v.1.12,2013-02-05 18:25:00,
2013-02-05 11:30:00,36.0,33.4,29.87,SSE,153,0.0,0.0,90,0.00,,,0.00,Wunderground v.1.12,2013-02-05 18:30:00,
2013-02-05 11:35:00,36.2,33.0,29.86,South,174,0.0,0.0,88,0.00,,,0.00,Wunderground v.1.12,2013-02-05 18:35:00,
2013-02-05 11:45:00,35.8,32.9,29.85,South,174,0.0,0.0,89,0.00,,,0.00,Wunderground v.1.12,2013-02-05 18:45:00,
2013-02-05 11:50:00,36.2,33.3,29.85,South,174,0.0,0.0,89,0.00,,,0.00,Wunderground v.1.12,2013-02-05 18:50:00,
2013-02-05 11:55:00,36.2,33.3,29.85,South,174,0.0,0.0,89,0.00,,,0.00,Wunderground v.1.12,2013-02-05 18:55:00,
2013-02-05 12:00:00,36.2,33.0,29.84,South,174,0.0,0.0,88,0.00,,,0.00,Wunderground v.1.12,2013-02-05 19:00:00,
2013-02-05 12:05:00,36.6,33.4,29.84,South,174,0.0,0.0,88,0.00,,,0.00,Wunderground v.1.12,2013-02-05 19:05:00,
2013-02-05 12:10:00,36.6,33.4,29.84,South,174,0.0,0.0,88,0.00,,,0.00,Wunderground v.1.12,2013-02-05 19:10:00,
2013-02-05 12:15:00,36.7,33.5,29.83,South,174,0.0,0.0,88,0.00,,,0.00,Wunderground v.1.12,2013-02-05 19:15:00,
2013-02-05 12:25:00,36.5,33.0,29.83,South,174,0.0,0.0,87,0.00,,,0.00,Wunderground v.1.12,2013-02-05 19:25:00,
2013-02-05 12:30:00,36.5,33.3,29.83,South,174,0.0,0.0,88,0.00,,,0.00,Wunderground v.1.12,2013-02-05 19:30:00,
2013-02-05 12:35:00,36.3,33.1,29.83,South,174,0.0,0.0,88,0.00,,,0.00,Wunderground v.1.12,2013-02-05 19:35:00,
2013-02-05 12:40:00,36.6,33.4,29.83,South,174,0.0,0.0,88,0.00,,,0.00,Wunderground v.1.12,2013-02-05 19:40:00,
2013-02-05 12:45:00,36.8,33.6,29.83,South,174,0.0,0.0,88,0.00,,,0.00,Wunderground v.1.12,2013-02-05 19:45:00,
2013-02-05 12:55:00,37.3,34.1,29.83,South,174,0.0,0.0,88,0.00,,,0.00,Wunderground v.1.12,2013-02-05 19:55:00,
2013-02-05 13:00:00,37.2,34.0,29.82,South,174,0.0,0.0,88,0.00,,,0.00,Wunderground v.1.12,2013-02-05 20:00:00,
2013-02-05 13:05:00,37.1,33.9,29.82,South,174,0.0,0.0,88,0.00,,,0.00,Wunderground v.1.12,2013-02-05 20:05:00,
2013-02-05 13:10:00,37.7,34.2,29.82,South,174,0.0,0.0,87,0.00,,,0.00,Wunderground v.1.12,2013-02-05 20:10:00,
2013-02-05 13:15:00,37.3,33.5,29.81,South,175,0.0,0.0,86,0.00,,,0.00,Wunderground v.1.12,2013-02-05 20:15:00,
2013-02-05 13:25:00,37.5,34.0,29.81,South,174,0.0,0.0,87,0.00,,,0.00,Wunderground v.1.12,2013-02-05 20:25:00,
2013-02-05 13:35:00,37.9,34.1,29.80,South,174,0.0,0.0,86,0.00,,,0.00,Wunderground v.1.12,2013-02-05 20:35:00,
2013-02-05 13:40:00,37.9,34.4,29.80,South,174,0.0,0.0,87,0.00,,,0.00,Wunderground v.1.12,2013-02-05 20:40:00,
2013-02-05 13:45:00,38.1,34.6,29.79,South,174,0.0,0.0,87,0.00,,,0.00,Wunderground v.1.12,2013-02-05 20:45:00,
2013-02-05 13:50:00,38.7,35.2,29.79,South,174,0.0,0.0,87,0.00,,,0.00,Wunderground v.1.12,2013-02-05 20:50:00,
2013-02-05 13:55:00,39.0,35.2,29.79,South,174,0.0,0.0,86,0.00,,,0.00,Wunderground v.1.12,2013-02-05 20:55:00,
2013-02-05 14:05:00,40.1,36.0,29.79,South,174,0.0,0.0,85,0.00,,,0.00,Wunderground v.1.12,2013-02-05 21:05:00,
2013-02-05 14:15:00,40.5,36.3,29.79,South,175,0.0,0.0,85,0.00,,,0.00,Wunderground v.1.12,2013-02-05 21:15:00,
2013-02-05 14:20:00,40.6,36.1,29.78,South,174,0.0,0.0,84,0.00,,,0.00,Wunderground v.1.12,2013-02-05 21:20:00,
2013-02-05 14:30:00,40.4,35.9,29.77,South,174,0.0,0.0,84,0.00,,,0.00,Wunderground v.1.12,2013-02-05 21:30:00,
2013-02-05 14:35:00,40.7,36.5,29.77,South,174,0.0,0.0,85,0.00,,,0.00,Wunderground v.1.12,2013-02-05 21:35:00,
2013-02-05 14:40:00,40.3,35.8,29.76,South,174,0.0,0.0,84,0.00,,,0.00,Wunderground v.1.12,2013-02-05 21:40:00,
2013-02-05 14:45:00,40.7,36.2,29.77,WSW,242,0.0,0.0,84,0.00,,,0.00,Wunderground v.1.12,2013-02-05 21:45:00,
2013-02-05 14:50:00,41.1,36.6,29.76,SW,229,0.0,0.0,84,0.00,,,0.00,Wunderground v.1.12,2013-02-05 21:50:00,
2013-02-05 14:55:00,40.9,36.1,29.76,SW,229,0.0,0.0,83,0.00,,,0.00,Wunderground v.1.12,2013-02-05 21:55:00,
2013-02-05 15:00:00,41.0,36.5,29.76,SW,229,0.0,0.0,84,0.00,,,0.00,Wunderground v.1.12,2013-02-05 22:00:00,
2013-02-05 15:10:00,41.4,36.6,29.75,SW,229,0.0,0.0,83,0.00,,,0.00,Wunderground v.1.12,2013-02-05 22:10:00,
2013-02-05 15:15:00,41.1,36.3,29.75,North,0,0.0,0.0,83,0.00,,,0.00,Wunderground v.1.12,2013-02-05 22:15:00,
2013-02-05 15:20:00,41.5,36.4,29.75,North,0,0.0,0.0,82,0.00,,,0.00,Wunderground v.1.12,2013-02-05 22:20:00,
2013-02-05 15:30:00,41.6,36.5,29.76,North,0,0.0,0.0,82,0.00,,,0.00,Wunderground v.1.12,2013-02-05 22:30:00,
2013-02-05 15:40:00,41.3,36.5,29.75,North,0,0.0,0.0,83,0.00,,,0.00,Wunderground v.1.12,2013-02-05 22:40:00,
2013-02-05 15:45:00,41.2,36.1,29.75,North,0,0.0,0.0,82,0.00,,,0.00,Wunderground v.1.12,2013-02-05 22:45:00,
2013-02-05 15:50:00,41.4,36.3,29.74,North,0,0.0,0.0,82,0.00,,,0.00,Wunderground v.1.12,2013-02-05 22:50:00,
2013-02-05 15:55:00,41.3,36.2,29.75,North,0,0.0,0.0,82,0.00,,,0.00,Wunderground v.1.12,2013-02-05 22:55:00,
2013-02-05 16:00:00,41.6,36.2,29.75,North,0,0.0,0.0,81,0.00,,,0.00,Wunderground v.1.12,2013-02-05 23:00:00,
2013-02-05 16:05:00,41.7,36.0,29.75,North,0,0.0,0.0,80,0.00,,,0.00,Wunderground v.1.12,2013-02-05 23:05:00,
2013-02-05 16:15:00,42.1,35.7,29.75,North,0,0.0,0.0,78,0.00,,,0.00,Wunderground v.1.12,2013-02-05 23:15:00,
2013-02-05 16:20:00,41.6,34.9,29.75,North,0,0.0,0.0,77,0.00,,,0.00,Wunderground v.1.12,2013-02-05 23:20:00,
2013-02-05 16:25:00,41.7,34.7,29.75,North,0,0.0,0.0,76,0.00,,,0.00,Wunderground v.1.12,2013-02-05 23:25:00,
2013-02-05 16:30:00,41.7,34.4,29.75,North,0,0.0,0.0,75,0.00,,,0.00,Wunderground v.1.12,2013-02-05 23:30:00,
2013-02-05 16:35:00,41.6,33.9,29.75,North,0,0.0,0.0,74,0.00,,,0.00,Wunderground v.1.12,2013-02-05 23:35:00,
2013-02-05 16:40:00,41.4,33.7,29.75,North,0,0.0,0.0,74,0.00,,,0.00,Wunderground v.1.12,2013-02-05 23:40:00,
2013-02-05 16:45:00,41.9,34.2,29.75,North,0,0.0,0.0,74,0.00,,,0.00,Wunderground v.1.12,2013-02-05 23:45:00,
2013-02-05 16:50:00,41.8,34.1,29.75,North,0,0.0,0.0,74,0.00,,,0.00,Wunderground v.1.12,2013-02-05 23:50:00,
2013-02-05 16:55:00,41.9,33.9,29.75,North,0,0.0,0.0,73,0.00,,,0.00,Wunderground v.1.12,2013-02-05 23:55:00,
2013-02-05 17:00:00,41.6,33.9,29.75,North,0,0.0,0.0,74,0.00,,,0.00,Wunderground v.1.12,2013-02-06 00:00:00,
2013-02-05 17:05:00,41.8,33.8,29.75,North,0,0.0,0.0,73,0.00,,,0.00,Wunderground v.1.12,2013-02-06 00:05:00,
2013-02-05 17:10:00,41.6,33.6,29.75,North,0,0.0,0.0,73,0.00,,,0.00,Wunderground v.1.12,2013-02-06 00:10:00,
2013-02-05 17:20:00,41.3,34.0,29.76,North,0,0.0,0.0,75,0.00,,,0.00,Wunderground v.1.12,2013-02-06 00:20:00,
2013-02-05 17:25:00,40.9,33.9,29.76,North,2,0.0,0.0,76,0.00,,,0.00,Wunderground v.1.12,2013-02-06 00:25:00,
2013-02-05 17:30:00,41.0,34.7,29.76,North,0,0.0,0.0,78,0.00,,,0.00,Wunderground v.1.12,2013-02-06 00:30:00,
2013-02-05 17:35:00,40.6,34.3,29.76,East,84,0.0,0.0,78,0.00,,,0.00,Wunderground v.1.12,2013-02-06 00:35:00,
2013-02-05 17:40:00,40.4,34.1,29.76,North,0,0.0,0.0,78,0.00,,,0.00,Wunderground v.1.12,2013-02-06 00:40:00,
2013-02-05 17:50:00,40.3,34.0,29.76,North,0,0.0,0.0,78,0.00,,,0.00,Wunderground v.1.12,2013-02-06 00:50:00,
2013-02-05 17:55:00,40.1,33.8,29.76,North,0,0.0,0.0,78,0.00,,,0.00,Wunderground v.1.12,2013-02-06 00:55:00,
2013-02-05 18:00:00,39.9,33.6,29.76,North,0,0.0,0.0,78,0.00,,,0.00,Wunderground v.1.12,2013-02-06 01:00:00,
2013-02-05 18:05:00,39.9,33.9,29.77,North,0,0.0,0.0,79,0.00,,,0.00,Wunderground v.1.12,2013-02-06 01:05:00,
2013-02-05 18:10:00,39.8,33.8,29.77,North,0,0.0,0.0,79,0.00,,,0.00,Wunderground v.1.12,2013-02-06 01:10:00,
2013-02-05 18:20:00,39.8,33.8,29.77,North,0,0.0,0.0,79,0.00,,,0.00,Wunderground v.1.12,2013-02-06 01:20:00,
2013-02-05 18:25:00,39.3,33.3,29.77,North,0,0.0,0.0,79,0.00,,,0.00,Wunderground v.1.12,2013-02-06 01:25:00,
2013-02-05 18:30:00,39.6,33.9,29.77,North,0,0.0,0.0,80,0.00,,,0.00,Wunderground v.1.12,2013-02-06 01:30:00,
2013-02-05 18:35:00,39.5,33.8,29.77,North,0,0.0,0.0,80,0.00,,,0.00,Wunderground v.1.12,2013-02-06 01:35:00,
2013-02-05 18:40:00,39.3,34.0,29.77,North,0,0.0,0.0,81,0.00,,,0.00,Wunderground v.1.12,2013-02-06 01:40:00,
2013-02-05 18:45:00,39.2,33.9,29.78,North,0,0.0,0.0,81,0.00,,,0.00,Wunderground v.1.12,2013-02-06 01:45:00,
2013-02-05 18:50:00,39.4,34.1,29.78,North,1,0.0,0.0,81,0.00,,,0.00,Wunderground v.1.12,2013-02-06 01:50:00,
2013-02-05 18:55:00,39.2,33.9,29.78,North,0,0.0,0.0,81,0.00,,,0.00,Wunderground v.1.12,2013-02-06 01:55:00,
2013-02-05 19:05:00,39.1,33.8,29.78,North,0,0.0,0.0,81,0.00,,,0.00,Wunderground v.1.12,2013-02-06 02:05:00,
2013-02-05 19:10:00,39.1,33.8,29.77,North,0,0.0,0.0,81,0.00,,,0.00,Wunderground v.1.12,2013-02-06 02:10:00,
2013-02-05 19:15:00,39.0,33.7,29.77,North,0,0.0,0.0,81,0.00,,,0.00,Wunderground v.1.12,2013-02-06 02:15:00,
2013-02-05 19:25:00,38.8,33.8,29.77,North,0,0.0,0.0,82,0.00,,,0.00,Wunderground v.1.12,2013-02-06 02:25:00,
2013-02-05 19:30:00,38.7,33.7,29.78,North,0,0.0,0.0,82,0.00,,,0.00,Wunderground v.1.12,2013-02-06 02:30:00,
2013-02-05 19:35:00,38.5,33.8,29.77,North,0,3.0,3.0,83,0.00,,,0.00,Wunderground v.1.12,2013-02-06 02:35:00,
2013-02-05 19:40:00,38.3,33.6,29.77,ENE,58,0.0,0.0,83,0.00,,,0.00,Wunderground v.1.12,2013-02-06 02:40:00,
2013-02-05 19:45:00,38.2,33.5,29.77,North,0,0.0,0.0,83,0.00,,,0.00,Wunderground v.1.12,2013-02-06 02:45:00,
2013-02-05 19:50:00,38.3,33.6,29.78,North,0,0.0,0.0,83,0.00,,,0.00,Wunderground v.1.12,2013-02-06 02:50:00,
2013-02-05 20:00:00,38.0,33.6,29.78,North,0,0.0,0.0,84,0.00,,,0.00,Wunderground v.1.12,2013-02-06 03:00:00,
2013-02-05 20:05:00,38.0,33.6,29.78,North,0,0.0,0.0,84,0.00,,,0.00,Wunderground v.1.12,2013-02-06 03:05:00,
2013-02-05 20:10:00,38.1,33.7,29.78,North,0,0.0,0.0,84,0.00,,,0.00,Wunderground v.1.12,2013-02-06 03:10:00,
2013-02-05 20:15:00,37.9,33.8,29.79,North,0,0.0,0.0,85,0.00,,,0.00,Wunderground v.1.12,2013-02-06 03:15:00,
2013-02-05 20:20:00,37.5,33.4,29.79,North,0,0.0,0.0,85,0.00,,,0.00,Wunderground v.1.12,2013-02-06 03:20:00,
2013-02-05 20:25:00,37.5,33.7,29.78,North,0,0.0,0.0,86,0.00,,,0.00,Wunderground v.1.12,2013-02-06 03:25:00,
2013-02-05 20:30:00,37.3,33.2,29.79,West,259,0.0,0.0,85,0.00,,,0.00,Wunderground v.1.12,2013-02-06 03:30:00,
2013-02-05 20:35:00,37.4,33.3,29.79,North,0,0.0,0.0,85,0.00,,,0.00,Wunderground v.1.12,2013-02-06 03:35:00,
2013-02-05 20:40:00,37.8,33.7,29.79,North,0,0.0,0.0,85,0.00,,,0.00,Wunderground v.1.12,2013-02-06 03:40:00,
2013-02-05 20:45:00,37.5,33.4,29.79,ENE,57,0.0,0.0,85,0.00,,,0.00,Wunderground v.1.12,2013-02-06 03:45:00,
2013-02-05 20:50:00,37.5,33.4,29.80,North,0,0.0,0.0,85,0.00,,,0.00,Wunderground v.1.12,2013-02-06 03:50:00,
2013-02-05 21:00:00,37.2,33.1,29.79,North,0,0.0,0.0,85,0.00,,,0.00,Wunderground v.1.12,2013-02-06 04:00:00,
2013-02-05 21:05:00,37.4,33.3,29.80,N/A,-737280,0.0,1.0,85,0.00,,,0.00,Wunderground v.1.12,2013-02-06 04:05:00,
2013-02-05 21:10:00,36.9,33.1,29.79,North,0,0.0,0.0,86,0.00,,,0.00,Wunderground v.1.12,2013-02-06 04:10:00,
2013-02-05 21:15:00,36.5,32.7,29.79,North,0,0.0,0.0,86,0.00,,,0.00,Wunderground v.1.12,2013-02-06 04:15:00,
2013-02-05 21:20:00,36.5,32.7,29.80,North,0,0.0,0.0,86,0.00,,,0.00,Wunderground v.1.12,2013-02-06 04:20:00,
2013-02-05 21:25:00,36.6,32.8,29.80,North,0,0.0,0.0,86,0.00,,,0.00,Wunderground v.1.12,2013-02-06 04:25:00,
2013-02-05 21:35:00,36.1,32.3,29.80,North,0,0.0,0.0,86,0.00,,,0.00,Wunderground v.1.12,2013-02-06 04:35:00,
2013-02-05 21:40:00,36.1,32.0,29.79,NE,35,0.0,0.0,85,0.00,,,0.00,Wunderground v.1.12,2013-02-06 04:40:00,
2013-02-05 21:45:00,36.2,31.8,29.80,North,0,0.0,0.0,84,0.00,,,0.00,Wunderground v.1.12,2013-02-06 04:45:00,
2013-02-05 21:50:00,36.2,31.8,29.81,North,0,0.0,0.0,84,0.00,,,0.00,Wunderground v.1.12,2013-02-06 04:50:00,
2013-02-05 21:55:00,36.1,32.0,29.81,North,0,0.0,0.0,85,0.00,,,0.00,Wunderground v.1.12,2013-02-06 04:55:00,
2013-02-05 22:00:00,35.9,31.8,29.82,North,0,0.0,0.0,85,0.00,,,0.00,Wunderground v.1.12,2013-02-06 05:00:00,
2013-02-05 22:05:00,35.6,31.8,29.82,North,0,0.0,0.0,86,0.00,,,0.00,Wunderground v.1.12,2013-02-06 05:05:00,
2013-02-05 22:10:00,35.8,32.0,29.83,North,0,0.0,0.0,86,0.00,,,0.00,Wunderground v.1.12,2013-02-06 05:10:00,
2013-02-05 22:20:00,35.3,31.8,29.82,North,0,0.0,0.0,87,0.00,,,0.00,Wunderground v.1.12,2013-02-06 05:20:00,
2013-02-05 22:25:00,35.2,31.7,29.82,North,0,0.0,0.0,87,0.00,,,0.00,Wunderground v.1.12,2013-02-06 05:25:00,
2013-02-05 22:30:00,35.0,31.8,29.83,North,0,0.0,0.0,88,0.00,,,0.00,Wunderground v.1.12,2013-02-06 05:30:00,
2013-02-05 22:35:00,34.8,31.6,29.83,North,0,0.0,0.0,88,0.00,,,0.00,Wunderground v.1.12,2013-02-06 05:35:00,
2013-02-05 22:40:00,34.7,31.5,29.83,North,0,0.0,0.0,88,0.00,,,0.00,Wunderground v.1.12,2013-02-06 05:40:00,
2013-02-05 22:45:00,34.7,31.5,29.83,North,0,0.0,0.0,88,0.00,,,0.00,Wunderground v.1.12,2013-02-06 05:45:00,
2013-02-05 22:50:00,35.0,31.8,29.84,North,0,0.0,0.0,88,0.00,,,0.00,Wunderground v.1.12,2013-02-06 05:50:00,
2013-02-05 22:55:00,35.0,32.1,29.85,North,0,0.0,0.0,89,0.00,,,0.00,Wunderground v.1.12,2013-02-06 05:55:00,
2013-02-05 23:00:00,34.6,31.7,29.84,North,0,0.0,0.0,89,0.00,,,0.00,Wunderground v.1.12,2013-02-06 06:00:00,
2013-02-05 23:05:00,35.0,32.1,29.85,North,0,0.0,0.0,89,0.00,,,0.00,Wunderground v.1.12,2013-02-06 06:05:00,
2013-02-05 23:10:00,35.0,32.1,29.85,North,0,0.0,0.0,89,0.00,,,0.00,Wunderground v.1.12,2013-02-06 06:10:00,
2013-02-05 23:15:00,35.0,32.1,29.85,North,0,0.0,0.0,89,0.00,,,0.00,Wunderground v.1.12,2013-02-06 06:15:00,
2013-02-05 23:20:00,35.1,32.2,29.85,North,0,0.0,0.0,89,0.00,,,0.00,Wunderground v.1.12,2013-02-06 06:20:00,
2013-02-05 23:25:00,35.2,32.3,29.85,North,0,0.0,0.0,89,0.00,,,0.00,Wunderground v.1.12,2013-02-06 06:25:00,
2013-02-05 23:30:00,35.3,32.4,29.86,North,0,0.0,0.0,89,0.00,,,0.00,Wunderground v.1.12,2013-02-06 06:30:00,
2013-02-05 23:40:00,35.0,32.1,29.85,North,0,0.0,0.0,89,0.00,,,0.00,Wunderground v.1.12,2013-02-06 06:40:00,
2013-02-05 23:45:00,35.1,31.9,29.86,North,0,0.0,0.0,88,0.00,,,0.00,Wunderground v.1.12,2013-02-06 06:45:00,
2013-02-05 23:50:00,35.1,32.2,29.86,North,0,0.0,0.0,89,0.00,,,0.00,Wunderground v.1.12,2013-02-06 06:50:00,
2013-02-05 23:55:00,35.1,31.9,29.86,North,0,0.0,0.0,88,0.00,,,0.00,Wunderground v.1.12,2013-02-06 06:55:00,